Back to Top

Language: 

My Weather Underground Personal Weather Station Historical Data with Graphs...

Delerius Weather Station Historical Data
Daily Summary for January 30, 2017 Units:  English    Metric   Both
« Previous Day
Next Day »
Daily Weekly Monthly Yearly Custom
  High: Low: Average:
Temperature: 42.6 °F 39.1 °F 40.8 °F
Dew Point: 42.1 °F 38.3 °F 39.7 °F
Humidity: 98 % 90 % 96 %
Wind Speed: 10.0 mph 0.0 mph 3.7 mph
Wind Gust: -999.0 mph - -
Wind:- - SSE
Pressure: 29.91 in 29.76 in -
Precipitation: 0.00 in    
Historical Graphs
 
 
Tabular Data for January 30, 2017
Time Temperature Dew Point Pressure Wind Wind Speed Wind Gust Humidity Rainfall Rate (Hourly) solar Conditions
00:01 39.9 °F 39.4 °F 29.76 in NW 2.0 mph -999.0 mph 98 % 0.01 in 0 W/m2
00:06 39.9 °F 39.4 °F 29.76 in NW 2.0 mph -999.0 mph 98 % 0.01 in 0 W/m2
00:11 39.9 °F 39.4 °F 29.76 in NW 2.0 mph -999.0 mph 98 % 0.01 in 0 W/m2
00:16 39.9 °F 39.4 °F 29.76 in NW 2.0 mph -999.0 mph 98 % 0.01 in 0 W/m2
00:21 39.9 °F 39.4 °F 29.76 in NW 2.0 mph -999.0 mph 98 % 0.01 in 0 W/m2
00:26 39.8 °F 39.0 °F 29.76 in NNW 3.0 mph -999.0 mph 97 % 0.00 in 0 W/m2
00:31 39.8 °F 39.0 °F 29.76 in NNW 3.0 mph -999.0 mph 97 % 0.00 in 0 W/m2
00:36 39.8 °F 39.0 °F 29.76 in NNW 3.0 mph -999.0 mph 97 % 0.00 in 0 W/m2
00:41 39.8 °F 39.3 °F 29.77 in North 3.0 mph -999.0 mph 98 % 0.00 in 0 W/m2
00:46 39.8 °F 39.3 °F 29.77 in North 3.0 mph -999.0 mph 98 % 0.00 in 0 W/m2
00:51 39.8 °F 39.3 °F 29.77 in North 3.0 mph -999.0 mph 98 % 0.00 in 0 W/m2
00:56 39.8 °F 39.3 °F 29.77 in NW 2.0 mph -999.0 mph 98 % 0.00 in 0 W/m2
01:01 39.8 °F 39.3 °F 29.77 in NW 2.0 mph -999.0 mph 98 % 0.00 in 0 W/m2
01:06 39.8 °F 39.3 °F 29.77 in NW 2.0 mph -999.0 mph 98 % 0.00 in 0 W/m2
01:11 39.7 °F 39.2 °F 29.77 in NW 3.0 mph -999.0 mph 98 % 0.00 in 0 W/m2
01:16 39.7 °F 39.2 °F 29.77 in NW 3.0 mph -999.0 mph 98 % 0.00 in 0 W/m2
01:21 39.7 °F 39.2 °F 29.77 in NW 3.0 mph -999.0 mph 98 % 0.00 in 0 W/m2
01:26 39.7 °F 39.2 °F 29.77 in NW 2.0 mph -999.0 mph 98 % 0.00 in 0 W/m2
01:31 39.7 °F 39.2 °F 29.77 in NW 2.0 mph -999.0 mph 98 % 0.00 in 0 W/m2
01:36 39.7 °F 39.2 °F 29.77 in NW 2.0 mph -999.0 mph 98 % 0.00 in 0 W/m2
01:41 39.7 °F 39.2 °F 29.77 in NW 2.0 mph -999.0 mph 98 % 0.00 in 0 W/m2
01:46 39.7 °F 39.2 °F 29.77 in NW 2.0 mph -999.0 mph 98 % 0.00 in 0 W/m2
01:51 39.7 °F 39.2 °F 29.77 in NW 2.0 mph -999.0 mph 98 % 0.00 in 0 W/m2
01:56 39.7 °F 39.2 °F 29.77 in NW 1.0 mph -999.0 mph 98 % 0.00 in 0 W/m2
02:01 39.7 °F 39.2 °F 29.77 in NW 1.0 mph -999.0 mph 98 % 0.00 in 0 W/m2
02:06 39.7 °F 39.2 °F 29.77 in NW 1.0 mph -999.0 mph 98 % 0.00 in 0 W/m2
02:11 39.7 °F 39.2 °F 29.77 in NW 1.0 mph -999.0 mph 98 % 0.00 in 0 W/m2
02:16 39.7 °F 39.2 °F 29.77 in NW 1.0 mph -999.0 mph 98 % 0.00 in 0 W/m2
02:21 39.7 °F 39.2 °F 29.77 in NW 1.0 mph -999.0 mph 98 % 0.00 in 0 W/m2
02:26 39.7 °F 39.2 °F 29.77 in NW 1.0 mph -999.0 mph 98 % 0.00 in 0 W/m2
02:31 39.7 °F 39.2 °F 29.77 in NW 1.0 mph -999.0 mph 98 % 0.00 in 0 W/m2
02:36 39.7 °F 39.2 °F 29.77 in NW 1.0 mph -999.0 mph 98 % 0.00 in 0 W/m2
02:41 39.7 °F 39.2 °F 29.78 in NW 1.0 mph -999.0 mph 98 % 0.00 in 0 W/m2
02:46 39.7 °F 39.2 °F 29.78 in NW 1.0 mph -999.0 mph 98 % 0.00 in 0 W/m2
02:51 39.7 °F 39.2 °F 29.78 in NW 1.0 mph -999.0 mph 98 % 0.00 in 0 W/m2
02:56 39.8 °F 39.3 °F 29.78 in NW 1.0 mph -999.0 mph 98 % 0.00 in 0 W/m2
03:01 39.8 °F 39.3 °F 29.78 in NW 1.0 mph -999.0 mph 98 % 0.00 in 0 W/m2
03:06 39.8 °F 39.3 °F 29.78 in NW 1.0 mph -999.0 mph 98 % 0.00 in 0 W/m2
03:11 39.8 °F 39.3 °F 29.78 in NNW 1.0 mph -999.0 mph 98 % 0.00 in 0 W/m2
03:16 39.8 °F 39.3 °F 29.78 in NNW 1.0 mph -999.0 mph 98 % 0.00 in 0 W/m2
03:21 39.8 °F 39.3 °F 29.78 in NNW 1.0 mph -999.0 mph 98 % 0.00 in 0 W/m2
03:26 39.8 °F 39.3 °F 29.79 in NNW 1.0 mph -999.0 mph 98 % 0.00 in 0 W/m2
03:31 39.8 °F 39.3 °F 29.79 in NNW 1.0 mph -999.0 mph 98 % 0.00 in 0 W/m2
03:36 39.8 °F 39.3 °F 29.79 in NNW 1.0 mph -999.0 mph 98 % 0.00 in 0 W/m2
03:41 39.8 °F 39.3 °F 29.79 in NW 2.0 mph -999.0 mph 98 % 0.00 in 0 W/m2
03:46 39.8 °F 39.3 °F 29.79 in NW 2.0 mph -999.0 mph 98 % 0.00 in 0 W/m2
03:51 39.8 °F 39.3 °F 29.79 in NW 2.0 mph -999.0 mph 98 % 0.00 in 0 W/m2
03:56 39.7 °F 39.2 °F 29.80 in Calm   -999.0 mph 98 % 0.00 in 0 W/m2
04:01 39.7 °F 39.2 °F 29.80 in Calm   -999.0 mph 98 % 0.00 in 0 W/m2
04:06 39.7 °F 39.2 °F 29.80 in Calm   -999.0 mph 98 % 0.00 in 0 W/m2
04:11 39.7 °F 39.2 °F 29.80 in Calm   -999.0 mph 98 % 0.00 in 0 W/m2
04:16 39.7 °F 39.2 °F 29.80 in Calm   -999.0 mph 98 % 0.00 in 0 W/m2
04:21 39.7 °F 39.2 °F 29.80 in Calm   -999.0 mph 98 % 0.00 in 0 W/m2
04:26 39.7 °F 39.2 °F 29.80 in NNW 1.0 mph -999.0 mph 98 % 0.00 in 0 W/m2
04:31 39.7 °F 39.2 °F 29.80 in NNW 1.0 mph -999.0 mph 98 % 0.00 in 0 W/m2
04:36 39.7 °F 39.2 °F 29.80 in NNW 1.0 mph -999.0 mph 98 % 0.00 in 0 W/m2
04:41 39.7 °F 39.2 °F 29.81 in North 2.0 mph -999.0 mph 98 % 0.00 in 0 W/m2
04:46 39.7 °F 39.2 °F 29.81 in North 2.0 mph -999.0 mph 98 % 0.00 in 0 W/m2
04:51 39.7 °F 39.2 °F 29.81 in North 2.0 mph -999.0 mph 98 % 0.00 in 0 W/m2
04:56 39.5 °F 39.0 °F 29.81 in North 5.0 mph -999.0 mph 98 % 0.00 in 0 W/m2
05:01 39.5 °F 39.0 °F 29.81 in North 5.0 mph -999.0 mph 98 % 0.00 in 0 W/m2
05:06 39.5 °F 39.0 °F 29.81 in North 5.0 mph -999.0 mph 98 % 0.00 in 0 W/m2
05:11 39.3 °F 38.8 °F 29.81 in NNE 4.0 mph -999.0 mph 98 % 0.00 in 0 W/m2
05:16 39.3 °F 38.8 °F 29.81 in NNE 4.0 mph -999.0 mph 98 % 0.00 in 0 W/m2
05:21 39.3 °F 38.8 °F 29.81 in NNE 4.0 mph -999.0 mph 98 % 0.00 in 0 W/m2
05:26 39.1 °F 38.6 °F 29.81 in NNE 4.0 mph -999.0 mph 98 % 0.00 in 0 W/m2
05:31 39.1 °F 38.6 °F 29.81 in NNE 4.0 mph -999.0 mph 98 % 0.00 in 0 W/m2
05:36 39.1 °F 38.6 °F 29.81 in NNE 4.0 mph -999.0 mph 98 % 0.00 in 0 W/m2
05:41 39.2 °F 38.7 °F 29.82 in North 2.0 mph -999.0 mph 98 % 0.00 in 0 W/m2
05:46 39.2 °F 38.7 °F 29.82 in North 2.0 mph -999.0 mph 98 % 0.00 in 0 W/m2
05:51 39.2 °F 38.7 °F 29.82 in North 2.0 mph -999.0 mph 98 % 0.00 in 0 W/m2
05:56 39.2 °F 38.7 °F 29.82 in NNW 4.0 mph -999.0 mph 98 % 0.00 in 0 W/m2
06:01 39.2 °F 38.7 °F 29.82 in NNW 4.0 mph -999.0 mph 98 % 0.00 in 0 W/m2
06:06 39.2 °F 38.7 °F 29.82 in NNW 4.0 mph -999.0 mph 98 % 0.00 in 0 W/m2
06:11 39.3 °F 38.8 °F 29.82 in North 4.0 mph -999.0 mph 98 % 0.00 in 0 W/m2
06:16 39.3 °F 38.8 °F 29.82 in North 4.0 mph -999.0 mph 98 % 0.00 in 0 W/m2
06:21 39.3 °F 38.8 °F 29.82 in North 4.0 mph -999.0 mph 98 % 0.00 in 0 W/m2
06:26 39.3 °F 38.8 °F 29.82 in North 2.0 mph -999.0 mph 98 % 0.00 in 0 W/m2
06:31 39.3 °F 38.8 °F 29.82 in North 2.0 mph -999.0 mph 98 % 0.00 in 0 W/m2
06:36 39.3 °F 38.8 °F 29.82 in North 2.0 mph -999.0 mph 98 % 0.00 in 0 W/m2
06:41 39.4 °F 38.9 °F 29.82 in NNE 2.0 mph -999.0 mph 98 % 0.00 in 0 W/m2
06:46 39.4 °F 38.9 °F 29.82 in NNE 2.0 mph -999.0 mph 98 % 0.00 in 0 W/m2
06:51 39.4 °F 38.9 °F 29.82 in NNE 2.0 mph -999.0 mph 98 % 0.00 in 0 W/m2
06:56 39.4 °F 38.9 °F 29.83 in NNE 1.0 mph -999.0 mph 98 % 0.00 in 0 W/m2
07:01 39.4 °F 38.9 °F 29.83 in NNE 1.0 mph -999.0 mph 98 % 0.00 in 0 W/m2
07:06 39.4 °F 38.9 °F 29.83 in NNE 1.0 mph -999.0 mph 98 % 0.00 in 0 W/m2
07:11 39.5 °F 39.0 °F 29.83 in Calm   -999.0 mph 98 % 0.00 in 0 W/m2
07:16 39.5 °F 39.0 °F 29.83 in Calm   -999.0 mph 98 % 0.00 in 0 W/m2
07:21 39.5 °F 39.0 °F 29.83 in Calm   -999.0 mph 98 % 0.00 in 0 W/m2
07:26 39.5 °F 39.0 °F 29.84 in Calm   -999.0 mph 98 % 0.00 in 0 W/m2
07:31 39.5 °F 39.0 °F 29.84 in Calm   -999.0 mph 98 % 0.00 in 0 W/m2
07:36 39.5 °F 39.0 °F 29.84 in Calm   -999.0 mph 98 % 0.00 in 0 W/m2
07:41 39.5 °F 39.0 °F 29.84 in Calm   -999.0 mph 98 % 0.00 in 0 W/m2
07:46 39.5 °F 39.0 °F 29.84 in Calm   -999.0 mph 98 % 0.00 in 0 W/m2
07:51 39.5 °F 39.0 °F 29.84 in Calm   -999.0 mph 98 % 0.00 in 0 W/m2
07:56 39.5 °F 39.0 °F 29.85 in Calm   -999.0 mph 98 % 0.00 in 0 W/m2
08:01 39.5 °F 39.0 °F 29.85 in Calm   -999.0 mph 98 % 0.00 in 0 W/m2
08:06 39.5 °F 39.0 °F 29.85 in Calm   -999.0 mph 98 % 0.00 in 0 W/m2
08:11 39.5 °F 39.0 °F 29.86 in Calm   -999.0 mph 98 % 0.00 in 0 W/m2
08:16 39.5 °F 39.0 °F 29.86 in Calm   -999.0 mph 98 % 0.00 in 0 W/m2
08:21 39.5 °F 39.0 °F 29.86 in Calm   -999.0 mph 98 % 0.00 in 0 W/m2
08:26 39.6 °F 39.1 °F 29.86 in Calm   -999.0 mph 98 % 0.00 in 5 W/m2
08:31 39.6 °F 39.1 °F 29.86 in Calm   -999.0 mph 98 % 0.00 in 5 W/m2
08:36 39.6 °F 39.1 °F 29.86 in Calm   -999.0 mph 98 % 0.00 in 5 W/m2
08:41 39.6 °F 39.1 °F 29.86 in Calm   -999.0 mph 98 % 0.00 in 11 W/m2
08:46 39.6 °F 39.1 °F 29.86 in Calm   -999.0 mph 98 % 0.00 in 11 W/m2
08:51 39.6 °F 39.1 °F 29.86 in Calm   -999.0 mph 98 % 0.00 in 11 W/m2
08:56 39.7 °F 39.2 °F 29.87 in Calm   -999.0 mph 98 % 0.00 in 13 W/m2
09:01 39.7 °F 39.2 °F 29.87 in Calm   -999.0 mph 98 % 0.00 in 13 W/m2
09:06 39.7 °F 39.2 °F 29.87 in Calm   -999.0 mph 98 % 0.00 in 13 W/m2
09:11 39.8 °F 39.3 °F 29.88 in Calm   -999.0 mph 98 % 0.00 in 16 W/m2
09:16 39.8 °F 39.3 °F 29.88 in Calm   -999.0 mph 98 % 0.00 in 16 W/m2
09:21 39.8 °F 39.3 °F 29.88 in Calm   -999.0 mph 98 % 0.00 in 16 W/m2
09:26 39.9 °F 39.4 °F 29.88 in Calm   -999.0 mph 98 % 0.00 in 27 W/m2
09:31 39.9 °F 39.4 °F 29.88 in Calm   -999.0 mph 98 % 0.00 in 27 W/m2
09:36 39.9 °F 39.4 °F 29.88 in Calm   -999.0 mph 98 % 0.00 in 27 W/m2
09:41 40.1 °F 39.6 °F 29.89 in Calm   -999.0 mph 98 % 0.00 in 30 W/m2
09:46 40.1 °F 39.6 °F 29.89 in Calm   -999.0 mph 98 % 0.00 in 30 W/m2
09:51 40.1 °F 39.6 °F 29.89 in Calm   -999.0 mph 98 % 0.00 in 30 W/m2
09:56 40.3 °F 39.8 °F 29.89 in Calm   -999.0 mph 98 % 0.00 in 37 W/m2
10:01 40.3 °F 39.8 °F 29.89 in Calm   -999.0 mph 98 % 0.00 in 37 W/m2
10:06 40.3 °F 39.8 °F 29.89 in Calm   -999.0 mph 98 % 0.00 in 37 W/m2
10:11 40.5 °F 40.0 °F 29.89 in Calm   -999.0 mph 98 % 0.00 in 36 W/m2
10:16 40.5 °F 40.0 °F 29.89 in Calm   -999.0 mph 98 % 0.00 in 36 W/m2
10:21 40.5 °F 40.0 °F 29.89 in Calm   -999.0 mph 98 % 0.00 in 36 W/m2
10:26 40.7 °F 40.2 °F 29.89 in Calm   -999.0 mph 98 % 0.00 in 33 W/m2
10:31 40.7 °F 40.2 °F 29.89 in Calm   -999.0 mph 98 % 0.00 in 33 W/m2
10:36 40.7 °F 40.2 °F 29.89 in Calm   -999.0 mph 98 % 0.00 in 33 W/m2
10:41 40.7 °F 40.2 °F 29.89 in Calm   -999.0 mph 98 % 0.00 in 34 W/m2
10:46 40.7 °F 40.2 °F 29.89 in Calm   -999.0 mph 98 % 0.00 in 34 W/m2
10:51 40.7 °F 40.2 °F 29.89 in Calm   -999.0 mph 98 % 0.00 in 34 W/m2
10:56 40.8 °F 40.3 °F 29.89 in Calm   -999.0 mph 98 % 0.00 in 43 W/m2
11:01 40.8 °F 40.3 °F 29.89 in Calm   -999.0 mph 98 % 0.00 in 43 W/m2
11:06 40.8 °F 40.3 °F 29.89 in Calm   -999.0 mph 98 % 0.00 in 43 W/m2
11:11 40.9 °F 40.4 °F 29.89 in NNE 1.0 mph -999.0 mph 98 % 0.00 in 51 W/m2
11:16 40.9 °F 40.4 °F 29.89 in NNE 1.0 mph -999.0 mph 98 % 0.00 in 51 W/m2
11:21 40.9 °F 40.4 °F 29.89 in NNE 1.0 mph -999.0 mph 98 % 0.00 in 51 W/m2
11:26 41.1 °F 40.6 °F 29.89 in Calm   -999.0 mph 98 % 0.00 in 54 W/m2
11:31 41.1 °F 40.6 °F 29.89 in Calm   -999.0 mph 98 % 0.00 in 54 W/m2
11:36 41.1 °F 40.6 °F 29.89 in Calm   -999.0 mph 98 % 0.00 in 54 W/m2
11:41 41.2 °F 40.7 °F 29.89 in Calm   -999.0 mph 98 % 0.00 in 63 W/m2
11:46 41.2 °F 40.7 °F 29.89 in Calm   -999.0 mph 98 % 0.00 in 63 W/m2
11:51 41.2 °F 40.7 °F 29.89 in Calm   -999.0 mph 98 % 0.00 in 63 W/m2
11:56 41.5 °F 41.0 °F 29.89 in East 1.0 mph -999.0 mph 98 % 0.00 in 73 W/m2
12:01 41.5 °F 41.0 °F 29.89 in East 1.0 mph -999.0 mph 98 % 0.00 in 73 W/m2
12:06 41.5 °F 41.0 °F 29.89 in East 1.0 mph -999.0 mph 98 % 0.00 in 73 W/m2
12:11 41.7 °F 41.2 °F 29.88 in Calm   -999.0 mph 98 % 0.00 in 76 W/m2
12:16 41.7 °F 41.2 °F 29.88 in Calm   -999.0 mph 98 % 0.00 in 76 W/m2
12:21 41.7 °F 41.2 °F 29.88 in Calm   -999.0 mph 98 % 0.00 in 76 W/m2
12:26 42.0 °F 41.5 °F 29.87 in ESE 2.0 mph -999.0 mph 98 % 0.00 in 91 W/m2
12:31 42.0 °F 41.5 °F 29.87 in ESE 2.0 mph -999.0 mph 98 % 0.00 in 91 W/m2
12:36 42.0 °F 41.5 °F 29.87 in ESE 2.0 mph -999.0 mph 98 % 0.00 in 91 W/m2
12:41 42.1 °F 41.6 °F 29.87 in ESE 3.0 mph -999.0 mph 98 % 0.00 in 103 W/m2
12:46 42.1 °F 41.6 °F 29.87 in ESE 3.0 mph -999.0 mph 98 % 0.00 in 103 W/m2
12:51 42.1 °F 41.6 °F 29.87 in ESE 3.0 mph -999.0 mph 98 % 0.00 in 103 W/m2
12:56 42.3 °F 41.8 °F 29.87 in ESE 4.0 mph -999.0 mph 98 % 0.00 in 116 W/m2
13:01 42.3 °F 41.8 °F 29.87 in ESE 4.0 mph -999.0 mph 98 % 0.00 in 116 W/m2
13:06 42.3 °F 41.8 °F 29.87 in ESE 4.0 mph -999.0 mph 98 % 0.00 in 116 W/m2
13:11 42.4 °F 41.9 °F 29.86 in ESE 2.0 mph -999.0 mph 98 % 0.00 in 55 W/m2
13:16 42.4 °F 41.9 °F 29.86 in ESE 2.0 mph -999.0 mph 98 % 0.00 in 55 W/m2
13:21 42.4 °F 41.9 °F 29.86 in ESE 2.0 mph -999.0 mph 98 % 0.00 in 55 W/m2
13:26 42.4 °F 41.9 °F 29.87 in ESE 3.0 mph -999.0 mph 98 % 0.00 in 73 W/m2
13:31 42.4 °F 41.9 °F 29.87 in ESE 3.0 mph -999.0 mph 98 % 0.00 in 73 W/m2
13:36 42.4 °F 41.9 °F 29.87 in ESE 3.0 mph -999.0 mph 98 % 0.00 in 73 W/m2
13:41 42.5 °F 42.0 °F 29.86 in SE 3.0 mph -999.0 mph 98 % 0.00 in 56 W/m2
13:46 42.5 °F 42.0 °F 29.86 in SE 3.0 mph -999.0 mph 98 % 0.00 in 56 W/m2
13:51 42.5 °F 42.0 °F 29.86 in SE 3.0 mph -999.0 mph 98 % 0.00 in 56 W/m2
13:56 42.6 °F 42.1 °F 29.87 in South 3.0 mph -999.0 mph 98 % 0.00 in 36 W/m2
14:01 42.6 °F 42.1 °F 29.87 in South 3.0 mph -999.0 mph 98 % 0.00 in 36 W/m2
14:06 42.6 °F 42.1 °F 29.87 in South 3.0 mph -999.0 mph 98 % 0.00 in 36 W/m2
14:11 42.6 °F 41.8 °F 29.87 in SSE 4.0 mph -999.0 mph 97 % 0.00 in 28 W/m2
14:16 42.6 °F 41.8 °F 29.87 in SSE 4.0 mph -999.0 mph 97 % 0.00 in 28 W/m2
14:21 42.6 °F 41.8 °F 29.87 in SSE 4.0 mph -999.0 mph 97 % 0.00 in 28 W/m2
14:26 42.6 °F 41.8 °F 29.87 in SSE 5.0 mph -999.0 mph 97 % 0.00 in 35 W/m2
14:31 42.6 °F 41.8 °F 29.87 in SSE 5.0 mph -999.0 mph 97 % 0.00 in 35 W/m2
14:36 42.6 °F 41.8 °F 29.87 in SSE 5.0 mph -999.0 mph 97 % 0.00 in 35 W/m2
14:41 42.6 °F 41.8 °F 29.88 in South 4.0 mph -999.0 mph 97 % 0.00 in 19 W/m2
14:46 42.6 °F 41.8 °F 29.88 in South 4.0 mph -999.0 mph 97 % 0.00 in 19 W/m2
14:51 42.6 °F 41.8 °F 29.88 in South 4.0 mph -999.0 mph 97 % 0.00 in 19 W/m2
14:56 42.5 °F 41.4 °F 29.88 in SE 6.0 mph -999.0 mph 96 % 0.00 in 17 W/m2
15:01 42.5 °F 41.4 °F 29.88 in SE 6.0 mph -999.0 mph 96 % 0.00 in 17 W/m2
15:06 42.5 °F 41.4 °F 29.88 in SE 6.0 mph -999.0 mph 96 % 0.00 in 17 W/m2
15:11 42.5 °F 41.4 °F 29.88 in SE 5.0 mph -999.0 mph 96 % 0.00 in 18 W/m2
15:16 42.5 °F 41.4 °F 29.88 in SE 5.0 mph -999.0 mph 96 % 0.00 in 18 W/m2
15:21 42.5 °F 41.4 °F 29.88 in SE 5.0 mph -999.0 mph 96 % 0.00 in 18 W/m2
15:26 42.5 °F 41.2 °F 29.87 in ESE 6.0 mph -999.0 mph 95 % 0.00 in 15 W/m2
15:31 42.5 °F 41.2 °F 29.87 in ESE 6.0 mph -999.0 mph 95 % 0.00 in 15 W/m2
15:36 42.5 °F 41.2 °F 29.87 in ESE 6.0 mph -999.0 mph 95 % 0.00 in 15 W/m2
15:41 42.3 °F 40.4 °F 29.87 in SE 7.0 mph -999.0 mph 93 % 0.00 in 14 W/m2
15:46 42.3 °F 40.4 °F 29.87 in SE 7.0 mph -999.0 mph 93 % 0.00 in 14 W/m2
15:51 42.3 °F 40.4 °F 29.87 in SE 7.0 mph -999.0 mph 93 % 0.00 in 14 W/m2
15:56 42.5 °F 40.3 °F 29.87 in SE 7.0 mph -999.0 mph 92 % 0.00 in 12 W/m2
16:01 42.5 °F 40.3 °F 29.87 in SE 7.0 mph -999.0 mph 92 % 0.00 in 12 W/m2
16:06 42.5 °F 40.3 °F 29.87 in SE 7.0 mph -999.0 mph 92 % 0.00 in 12 W/m2
16:11 42.6 °F 40.4 °F 29.87 in ESE 5.0 mph -999.0 mph 92 % 0.00 in 9 W/m2
16:16 42.6 °F 40.4 °F 29.87 in ESE 5.0 mph -999.0 mph 92 % 0.00 in 9 W/m2
16:21 42.6 °F 40.4 °F 29.87 in ESE 5.0 mph -999.0 mph 92 % 0.00 in 9 W/m2
16:26 42.6 °F 40.4 °F 29.88 in ESE 5.0 mph -999.0 mph 92 % 0.00 in 4 W/m2
16:31 42.6 °F 40.4 °F 29.88 in ESE 5.0 mph -999.0 mph 92 % 0.00 in 4 W/m2
16:36 42.6 °F 40.4 °F 29.88 in ESE 5.0 mph -999.0 mph 92 % 0.00 in 4 W/m2
16:41 42.6 °F 40.7 °F 29.88 in ESE 6.0 mph -999.0 mph 93 % 0.00 in 0 W/m2
16:46 42.6 °F 40.7 °F 29.88 in ESE 6.0 mph -999.0 mph 93 % 0.00 in 0 W/m2
16:51 42.6 °F 40.7 °F 29.88 in ESE 6.0 mph -999.0 mph 93 % 0.00 in 0 W/m2
16:56 42.6 °F 40.7 °F 29.89 in ESE 6.0 mph -999.0 mph 93 % 0.00 in 0 W/m2
17:01 42.6 °F 40.7 °F 29.89 in ESE 6.0 mph -999.0 mph 93 % 0.00 in 0 W/m2
17:06 42.6 °F 40.7 °F 29.89 in ESE 6.0 mph -999.0 mph 93 % 0.00 in 0 W/m2
17:11 42.5 °F 40.6 °F 29.89 in SE 7.0 mph -999.0 mph 93 % 0.00 in 0 W/m2
17:16 42.5 °F 40.6 °F 29.89 in SE 7.0 mph -999.0 mph 93 % 0.00 in 0 W/m2
17:21 42.5 °F 40.6 °F 29.89 in SE 7.0 mph -999.0 mph 93 % 0.00 in 0 W/m2
17:26 42.4 °F 40.2 °F 29.90 in SE 8.0 mph -999.0 mph 92 % 0.00 in 0 W/m2
17:31 42.4 °F 40.2 °F 29.90 in SE 8.0 mph -999.0 mph 92 % 0.00 in 0 W/m2
17:36 42.4 °F 40.2 °F 29.90 in SE 8.0 mph -999.0 mph 92 % 0.00 in 0 W/m2
17:41 42.4 °F 40.2 °F 29.90 in SE 8.0 mph -999.0 mph 92 % 0.00 in 0 W/m2
17:46 42.4 °F 40.2 °F 29.90 in SE 8.0 mph -999.0 mph 92 % 0.00 in 0 W/m2
17:51 42.4 °F 40.2 °F 29.90 in SE 8.0 mph -999.0 mph 92 % 0.00 in 0 W/m2
17:56 42.4 °F 40.0 °F 29.90 in SE 8.0 mph -999.0 mph 91 % 0.00 in 0 W/m2
18:01 42.4 °F 40.0 °F 29.90 in SE 8.0 mph -999.0 mph 91 % 0.00 in 0 W/m2
18:06 42.4 °F 40.0 °F 29.90 in SE 8.0 mph -999.0 mph 91 % 0.00 in 0 W/m2
18:11 42.3 °F 39.9 °F 29.90 in SE 9.0 mph -999.0 mph 91 % 0.00 in 0 W/m2
18:16 42.3 °F 39.9 °F 29.90 in SE 9.0 mph -999.0 mph 91 % 0.00 in 0 W/m2
18:21 42.3 °F 39.9 °F 29.90 in SE 9.0 mph -999.0 mph 91 % 0.00 in 0 W/m2
18:26 42.2 °F 39.5 °F 29.91 in SE 10.0 mph -999.0 mph 90 % 0.00 in 0 W/m2
18:31 42.2 °F 39.5 °F 29.91 in SE 10.0 mph -999.0 mph 90 % 0.00 in 0 W/m2
18:36 42.2 °F 39.5 °F 29.91 in SE 10.0 mph -999.0 mph 90 % 0.00 in 0 W/m2
18:41 42.1 °F 39.4 °F 29.91 in SE 9.0 mph -999.0 mph 90 % 0.00 in 0 W/m2
18:46 42.1 °F 39.4 °F 29.91 in SE 9.0 mph -999.0 mph 90 % 0.00 in 0 W/m2
18:51 42.1 °F 39.4 °F 29.91 in SE 9.0 mph -999.0 mph 90 % 0.00 in 0 W/m2
18:56 42.0 °F 39.3 °F 29.91 in SE 9.0 mph -999.0 mph 90 % 0.00 in 0 W/m2
19:01 42.0 °F 39.3 °F 29.91 in SE 9.0 mph -999.0 mph 90 % 0.00 in 0 W/m2
19:06 42.0 °F 39.3 °F 29.91 in SE 9.0 mph -999.0 mph 90 % 0.00 in 0 W/m2
19:11 42.0 °F 39.3 °F 29.91 in SE 9.0 mph -999.0 mph 90 % 0.00 in 0 W/m2
19:16 42.0 °F 39.3 °F 29.91 in SE 9.0 mph -999.0 mph 90 % 0.00 in 0 W/m2
19:21 42.0 °F 39.3 °F 29.91 in SE 9.0 mph -999.0 mph 90 % 0.00 in 0 W/m2
19:26 41.9 °F 39.2 °F 29.91 in SE 8.0 mph -999.0 mph 90 % 0.00 in 0 W/m2
19:31 41.9 °F 39.2 °F 29.91 in SE 8.0 mph -999.0 mph 90 % 0.00 in 0 W/m2
19:36 41.9 °F 39.2 °F 29.91 in SE 8.0 mph -999.0 mph 90 % 0.00 in 0 W/m2
19:41 41.8 °F 39.1 °F 29.90 in SE 7.0 mph -999.0 mph 90 % 0.00 in 0 W/m2
19:46 41.8 °F 39.1 °F 29.90 in SE 7.0 mph -999.0 mph 90 % 0.00 in 0 W/m2
19:51 41.8 °F 39.1 °F 29.90 in SE 7.0 mph -999.0 mph 90 % 0.00 in 0 W/m2
19:56 41.7 °F 39.0 °F 29.91 in ESE 6.0 mph -999.0 mph 90 % 0.00 in 0 W/m2
20:01 41.7 °F 39.0 °F 29.91 in ESE 6.0 mph -999.0 mph 90 % 0.00 in 0 W/m2
20:06 41.7 °F 39.0 °F 29.91 in ESE 6.0 mph -999.0 mph 90 % 0.00 in 0 W/m2
20:11 41.6 °F 39.2 °F 29.90 in SE 6.0 mph -999.0 mph 91 % 0.00 in 0 W/m2
20:16 41.6 °F 39.2 °F 29.90 in SE 6.0 mph -999.0 mph 91 % 0.00 in 0 W/m2
20:21 41.6 °F 39.2 °F 29.90 in SE 6.0 mph -999.0 mph 91 % 0.00 in 0 W/m2
20:26 41.5 °F 39.1 °F 29.90 in ESE 7.0 mph -999.0 mph 91 % 0.00 in 0 W/m2
20:31 41.5 °F 39.1 °F 29.90 in ESE 7.0 mph -999.0 mph 91 % 0.00 in 0 W/m2
20:36 41.5 °F 39.1 °F 29.90 in ESE 7.0 mph -999.0 mph 91 % 0.00 in 0 W/m2
20:41 41.4 °F 39.0 °F 29.90 in ESE 6.0 mph -999.0 mph 91 % 0.00 in 0 W/m2
20:46 41.4 °F 39.0 °F 29.90 in ESE 6.0 mph -999.0 mph 91 % 0.00 in 0 W/m2
20:51 41.4 °F 39.0 °F 29.90 in ESE 6.0 mph -999.0 mph 91 % 0.00 in 0 W/m2
20:56 41.3 °F 38.9 °F 29.90 in ESE 7.0 mph -999.0 mph 91 % 0.00 in 0 W/m2
21:01 41.3 °F 38.9 °F 29.90 in ESE 7.0 mph -999.0 mph 91 % 0.00 in 0 W/m2
21:06 41.3 °F 38.9 °F 29.90 in ESE 7.0 mph -999.0 mph 91 % 0.00 in 0 W/m2
21:11 41.2 °F 39.1 °F 29.90 in ESE 5.0 mph -999.0 mph 92 % 0.00 in 0 W/m2
21:16 41.2 °F 39.1 °F 29.90 in ESE 5.0 mph -999.0 mph 92 % 0.00 in 0 W/m2
21:21 41.2 °F 39.1 °F 29.90 in ESE 5.0 mph -999.0 mph 92 % 0.00 in 0 W/m2
21:26 41.1 °F 39.0 °F 29.91 in SE 6.0 mph -999.0 mph 92 % 0.00 in 0 W/m2
21:31 41.1 °F 39.0 °F 29.91 in SE 6.0 mph -999.0 mph 92 % 0.00 in 0 W/m2
21:36 41.1 °F 39.0 °F 29.91 in SE 6.0 mph -999.0 mph 92 % 0.00 in 0 W/m2
21:41 41.0 °F 38.9 °F 29.90 in SE 6.0 mph -999.0 mph 92 % 0.00 in 0 W/m2
21:46 41.0 °F 38.9 °F 29.90 in SE 6.0 mph -999.0 mph 92 % 0.00 in 0 W/m2
21:51 41.0 °F 38.9 °F 29.90 in SE 6.0 mph -999.0 mph 92 % 0.00 in 0 W/m2
21:56 40.9 °F 39.0 °F 29.90 in SE 8.0 mph -999.0 mph 93 % 0.00 in 0 W/m2
22:01 40.9 °F 39.0 °F 29.90 in SE 8.0 mph -999.0 mph 93 % 0.00 in 0 W/m2
22:06 40.9 °F 39.0 °F 29.90 in SE 8.0 mph -999.0 mph 93 % 0.00 in 0 W/m2
22:11 40.8 °F 38.9 °F 29.89 in SE 7.0 mph -999.0 mph 93 % 0.00 in 0 W/m2
22:16 40.8 °F 38.9 °F 29.89 in SE 7.0 mph -999.0 mph 93 % 0.00 in 0 W/m2
22:21 40.8 °F 38.9 °F 29.89 in SE 7.0 mph -999.0 mph 93 % 0.00 in 0 W/m2
22:26 40.6 °F 39.0 °F 29.89 in SE 8.0 mph -999.0 mph 94 % 0.00 in 0 W/m2
22:31 40.6 °F 39.0 °F 29.89 in SE 8.0 mph -999.0 mph 94 % 0.00 in 0 W/m2
22:36 40.6 °F 39.0 °F 29.89 in SE 8.0 mph -999.0 mph 94 % 0.00 in 0 W/m2
22:41 40.5 °F 38.9 °F 29.89 in SE 10.0 mph -999.0 mph 94 % 0.00 in 0 W/m2
22:46 40.5 °F 38.9 °F 29.89 in SE 10.0 mph -999.0 mph 94 % 0.00 in 0 W/m2
22:51 40.5 °F 38.9 °F 29.89 in SE 10.0 mph -999.0 mph 94 % 0.00 in 0 W/m2
22:56 40.4 °F 38.5 °F 29.89 in SE 9.0 mph -999.0 mph 93 % 0.00 in 0 W/m2
23:01 40.4 °F 38.5 °F 29.89 in SE 9.0 mph -999.0 mph 93 % 0.00 in 0 W/m2
23:06 40.4 °F 38.5 °F 29.89 in SE 9.0 mph -999.0 mph 93 % 0.00 in 0 W/m2
23:11 40.4 °F 38.5 °F 29.89 in SE 9.0 mph -999.0 mph 93 % 0.00 in 0 W/m2
23:16 40.4 °F 38.5 °F 29.89 in SE 9.0 mph -999.0 mph 93 % 0.00 in 0 W/m2
23:21 40.4 °F 38.5 °F 29.89 in SE 9.0 mph -999.0 mph 93 % 0.00 in 0 W/m2
23:26 40.3 °F 38.4 °F 29.89 in SE 8.0 mph -999.0 mph 93 % 0.00 in 0 W/m2
23:31 40.3 °F 38.4 °F 29.89 in SE 8.0 mph -999.0 mph 93 % 0.00 in 0 W/m2
23:36 40.3 °F 38.4 °F 29.89 in SE 8.0 mph -999.0 mph 93 % 0.00 in 0 W/m2
23:41 40.3 °F 38.4 °F 29.90 in SE 8.0 mph -999.0 mph 93 % 0.00 in 0 W/m2
23:46 40.3 °F 38.4 °F 29.90 in SE 8.0 mph -999.0 mph 93 % 0.00 in 0 W/m2
23:51 40.3 °F 38.4 °F 29.90 in SE 8.0 mph -999.0 mph 93 % 0.00 in 0 W/m2
23:56 40.2 °F 38.3 °F 29.89 in SE 8.0 mph -999.0 mph 93 % 0.00 in 0 W/m2
Delerius-Weather
Compliments of Weather Underground - 2.25 mb

Data updates at regular intervals.